Time;durP1;ratioP1;P1;durP2;ratioP2;P2;SDS_P1;SDS_P2;PMS_P1;PMS_P2;Temp;Humidity;BMP_temperature;BMP_pressure;BME280_temperature;BME280_humidity;BME280_pressure;Samples;Min_cycle;Max_cycle;Signal;HPM_P1;HPM_P2
2021/07/03 00:02:01;;;;;;;5.70;2.67;;;538.10;2278.40;;;;;;5065043;28;20391;-78
2021/07/03 00:04:27;;;;;;;5.88;3.00;;;538.00;2278.40;;;;;;5059321;28;20029;-77
2021/07/03 00:06:53;;;;;;;6.82;3.08;;;538.00;2278.40;;;;;;5059074;28;20036;-77
2021/07/03 00:09:18;;;;;;;5.25;2.88;;;538.00;2278.40;;;;;;5059503;28;20085;-77
2021/07/03 00:11:46;;;;;;;7.90;3.05;;;537.90;2304.00;;;;;;5071498;28;20029;-77
2021/07/03 00:14:12;;;;;;;5.57;3.20;;;537.90;2304.00;;;;;;5065732;28;20506;-77
2021/07/03 00:16:38;;;;;;;9.30;3.65;;;537.90;2304.00;;;;;;5062160;28;20033;-78
2021/07/03 00:19:05;;;;;;;5.05;3.28;;;537.80;2304.00;;;;;;5065085;28;20395;-78
2021/07/03 00:21:31;;;;;;;9.77;3.78;;;537.80;2329.60;;;;;;5055401;28;20033;-79
2021/07/03 00:23:57;;;;;;;8.40;3.55;;;537.70;2329.60;;;;;;5061777;28;20028;-78
2021/07/03 00:26:23;;;;;;;8.52;3.35;;;537.70;2329.60;;;;;;5061402;28;20031;-81
2021/07/03 00:28:49;;;;;;;6.47;3.78;;;537.70;2329.60;;;;;;5070799;28;20073;-78
2021/07/03 00:31:15;;;;;;;9.15;4.72;;;537.60;2329.60;;;;;;5054576;28;20032;-79
2021/07/03 00:33:42;;;;;;;7.43;4.72;;;537.60;2355.20;;;;;;5052154;28;20025;-79
2021/07/03 00:36:08;;;;;;;10.35;4.60;;;512.90;2329.60;;;;;;5039652;28;20030;-80
2021/07/03 00:38:35;;;;;;;7.63;4.47;;;512.90;2329.60;;;;;;5043553;28;20078;-80
2021/07/03 00:41:01;;;;;;;6.70;3.85;;;512.70;2329.60;;;;;;5039646;28;20383;-80
2021/07/03 00:43:27;;;;;;;7.65;4.15;;;512.60;2355.20;;;;;;5059432;28;20116;-80
2021/07/03 00:45:53;;;;;;;7.22;3.95;;;512.60;2355.20;;;;;;5044033;28;20107;-80
2021/07/03 00:48:19;;;;;;;5.57;3.83;;;512.60;2355.20;;;;;;5050061;28;20033;-80
2021/07/03 00:50:45;;;;;;;10.20;3.63;;;512.50;2355.20;;;;;;5051705;28;20025;-78
2021/07/03 00:53:11;;;;;;;7.03;3.70;;;512.50;2355.20;;;;;;5051224;28;20439;-78
2021/07/03 00:55:37;;;;;;;6.07;4.25;;;512.50;2380.80;;;;;;5050109;28;20037;-79
2021/07/03 00:58:03;;;;;;;5.82;4.10;;;512.50;2380.80;;;;;;5051622;28;20078;-78
2021/07/03 01:00:29;;;;;;;8.27;4.85;;;512.30;2380.80;;;;;;5048849;28;20030;-79
2021/07/03 01:02:54;;;;;;;5.00;4.03;;;512.30;2380.80;;;;;;5046948;28;20109;-79
2021/07/03 01:05:20;;;;;;;4.47;3.50;;;512.30;2380.80;;;;;;5037522;28;20029;-79
2021/07/03 01:07:46;;;;;;;8.05;4.63;;;512.30;2380.80;;;;;;5048649;28;20058;-79
2021/07/03 01:10:27;;;;;;;8.25;4.30;;;512.30;2380.80;;;;;;5038860;28;20468;-79
2021/07/03 01:12:53;;;;;;;6.72;4.70;;;512.20;2380.80;;;;;;5037489;28;20357;-79
2021/07/03 01:15:19;;;;;;;6.53;3.63;;;512.10;2380.80;;;;;;5035516;28;20396;-79
2021/07/03 01:17:46;;;;;;;7.35;3.92;;;512.00;2380.80;;;;;;5061015;28;20024;-78
2021/07/03 01:20:13;;;;;;;6.53;3.83;;;512.00;2380.80;;;;;;5043219;28;20071;-79
2021/07/03 01:22:40;;;;;;;7.13;4.07;;;487.30;2380.80;;;;;;5064510;28;20128;-78
2021/07/03 01:25:07;;;;;;;5.82;3.40;;;487.20;2380.80;;;;;;5041617;28;20037;-78
2021/07/03 01:27:34;;;;;;;4.60;3.35;;;487.20;2380.80;;;;;;5053041;28;20044;-78
2021/07/03 01:30:00;;;;;;;4.97;2.92;;;487.20;2380.80;;;;;;5055334;28;20526;-79
2021/07/03 01:32:26;;;;;;;5.05;3.10;;;487.10;2380.80;;;;;;5051339;28;20025;-78
2021/07/03 01:34:52;;;;;;;6.75;3.92;;;487.10;2380.80;;;;;;5065267;28;20025;-78
2021/07/03 01:37:18;;;;;;;5.93;3.78;;;487.10;2380.80;;;;;;5059635;28;20020;-78
2021/07/03 01:39:44;;;;;;;5.47;3.55;;;487.10;2380.80;;;;;;5058205;28;20029;-78
2021/07/03 01:42:10;;;;;;;6.97;3.67;;;487.00;2380.80;;;;;;5057690;28;20028;-78
2021/07/03 01:44:36;;;;;;;5.05;3.25;;;487.00;2380.80;;;;;;5058600;28;20028;-78
2021/07/03 01:47:03;;;;;;;6.55;3.28;;;486.90;2380.80;;;;;;5065498;28;20052;-78
2021/07/03 01:49:36;;;;;;;5.70;3.22;;;486.90;2380.80;;;;;;5051608;28;20033;-79
2021/07/03 01:52:02;;;;;;;7.90;3.35;;;486.90;2380.80;;;;;;5053494;28;20017;-79
2021/07/03 01:54:28;;;;;;;5.00;3.50;;;486.80;2380.80;;;;;;5062125;28;20078;-79
2021/07/03 01:56:59;;;;;;;10.13;3.47;;;486.80;2380.80;;;;;;5071794;28;20033;-78
2021/07/03 01:59:33;;;;;;;6.20;3.88;;;486.80;2380.80;;;;;;5062070;28;20208;-79
2021/07/03 02:02:02;;;;;;;7.10;4.20;;;486.70;2380.80;;;;;;5067965;28;20107;-79
2021/07/03 02:04:28;;;;;;;6.35;4.25;;;486.60;2380.80;;;;;;5071049;28;20024;-79
2021/07/03 02:06:54;;;;;;;5.43;3.53;;;486.60;2380.80;;;;;;5057784;28;20086;-78
2021/07/03 02:09:22;;;;;;;4.82;3.40;;;486.60;2380.80;;;;;;5052116;28;20033;-78
2021/07/03 02:11:49;;;;;;;7.63;4.68;;;486.60;2380.80;;;;;;5063905;28;20054;-78
2021/07/03 02:14:15;;;;;;;6.30;4.18;;;486.60;2380.80;;;;;;5064572;28;20108;-79
2021/07/03 02:16:41;;;;;;;7.40;3.80;;;486.60;2380.80;;;;;;5051602;28;20112;-78
2021/07/03 02:19:08;;;;;;;5.45;3.55;;;486.60;2380.80;;;;;;5067993;28;20029;-78
2021/07/03 02:21:34;;;;;;;5.93;3.28;;;486.60;2380.80;;;;;;5070708;28;20032;-78
2021/07/03 02:24:01;;;;;;;5.35;3.70;;;486.60;2380.80;;;;;;5069931;28;20027;-78
2021/07/03 02:26:27;;;;;;;6.10;3.25;;;486.50;2380.80;;;;;;5066148;28;20154;-78
2021/07/03 02:28:53;;;;;;;5.25;3.15;;;486.50;2380.80;;;;;;5060928;28;20124;-78
2021/07/03 02:31:20;;;;;;;5.32;3.33;;;461.70;2380.80;;;;;;5075150;28;20387;-78
2021/07/03 02:33:47;;;;;;;6.05;3.67;;;461.70;2380.80;;;;;;5071539;28;20058;-78
2021/07/03 02:36:13;;;;;;;4.35;3.72;;;461.60;2380.80;;;;;;5074256;28;20029;-78
2021/07/03 02:38:39;;;;;;;5.13;3.20;;;461.70;2380.80;;;;;;5061567;28;20467;-77
2021/07/03 02:41:05;;;;;;;4.60;3.60;;;461.70;2380.80;;;;;;5055886;28;20475;-78
2021/07/03 02:43:31;;;;;;;6.93;4.93;;;461.70;2380.80;;;;;;5072017;28;20017;-77
2021/07/03 02:45:58;;;;;;;5.82;3.45;;;461.70;2380.80;;;;;;5074686;28;20467;-77
2021/07/03 02:48:23;;;;;;;6.10;3.80;;;461.70;2380.80;;;;;;5060363;28;20371;-78
2021/07/03 02:50:49;;;;;;;8.90;4.05;;;461.60;2380.80;;;;;;5074020;28;20055;-78
2021/07/03 02:53:15;;;;;;;5.00;3.35;;;461.70;2380.80;;;;;;5074504;28;20021;-78
2021/07/03 02:55:41;;;;;;;7.57;3.40;;;461.70;2380.80;;;;;;5054213;28;20032;-78
2021/07/03 02:58:07;;;;;;;5.43;4.20;;;461.70;2380.80;;;;;;5069719;28;20031;-77
2021/07/03 03:00:32;;;;;;;6.55;4.47;;;461.70;2380.80;;;;;;5054939;28;20017;-77
2021/07/03 03:02:58;;;;;;;6.03;3.55;;;461.70;2380.80;;;;;;5066688;28;20037;-78
2021/07/03 03:05:24;;;;;;;4.72;3.47;;;461.70;2380.80;;;;;;5056815;28;20376;-78
2021/07/03 03:07:50;;;;;;;6.05;3.30;;;486.40;2380.80;;;;;;5069141;28;20099;-78
2021/07/03 03:10:18;;;;;;;5.97;4.05;;;461.70;2380.80;;;;;;5056942;28;20441;-77
2021/07/03 03:12:45;;;;;;;6.50;4.55;;;461.70;2380.80;;;;;;5055540;28;20026;-78
2021/07/03 03:15:13;;;;;;;9.65;4.05;;;461.60;2380.80;;;;;;5067328;28;20040;-77
2021/07/03 03:17:39;;;;;;;5.35;3.60;;;461.50;2380.80;;;;;;5062911;28;20025;-77
2021/07/03 03:20:11;;;;;;;5.28;3.67;;;461.50;2380.80;;;;;;5074132;28;20520;-80
2021/07/03 03:22:37;;;;;;;6.35;4.10;;;461.40;2380.80;;;;;;5071779;28;20043;-79
2021/07/03 03:25:05;;;;;;;5.72;3.47;;;461.40;2380.80;;;;;;5073451;28;20036;-79
2021/07/03 03:27:31;;;;;;;6.00;3.95;;;461.40;2380.80;;;;;;5063568;28;20059;-79
2021/07/03 03:29:56;;;;;;;7.35;4.32;;;461.50;2380.80;;;;;;5062100;28;20614;-81
2021/07/03 03:32:22;;;;;;;7.93;3.47;;;461.40;2380.80;;;;;;5073525;28;20069;-80
2021/07/03 03:34:48;;;;;;;5.43;3.42;;;461.40;2380.80;;;;;;5058995;28;20100;-80
2021/07/03 03:37:14;;;;;;;6.25;3.55;;;461.70;2380.80;;;;;;5065111;28;20027;-84
2021/07/03 03:39:39;;;;;;;8.52;4.10;;;461.70;2380.80;;;;;;5053734;28;20033;-84
2021/07/03 03:42:05;;;;;;;6.15;3.50;;;461.70;2380.80;;;;;;5073960;28;20391;-84
2021/07/03 03:44:31;;;;;;;6.05;3.60;;;461.70;2380.80;;;;;;5074243;28;20035;-85
2021/07/03 03:46:57;;;;;;;5.75;4.05;;;461.70;2380.80;;;;;;5061020;28;20418;-82
2021/07/03 03:49:23;;;;;;;5.30;3.67;;;461.70;2380.80;;;;;;5064445;28;20415;-83
2021/07/03 03:51:49;;;;;;;7.57;4.43;;;461.70;2380.80;;;;;;5063119;28;20364;-83
2021/07/03 03:54:19;;;;;;;13.65;5.18;;;461.50;2380.80;;;;;;5056318;28;20043;-84
2021/07/03 03:56:45;;;;;;;6.43;3.67;;;461.60;2380.80;;;;;;5068401;28;20035;-81
2021/07/03 03:59:11;;;;;;;11.18;4.35;;;461.70;2380.80;;;;;;5064847;28;20032;-83
2021/07/03 04:01:37;;;;;;;6.75;3.47;;;461.70;2380.80;;;;;;5072781;28;20024;-77
2021/07/03 04:04:03;;;;;;;11.68;4.03;;;461.70;2380.80;;;;;;5067832;28;20021;-77
2021/07/03 04:06:29;;;;;;;6.70;4.45;;;486.40;2380.80;;;;;;5061774;28;20025;-77
2021/07/03 04:08:55;;;;;;;6.63;4.43;;;461.70;2380.80;;;;;;5055588;28;20021;-77
2021/07/03 04:11:21;;;;;;;8.32;3.75;;;486.50;2380.80;;;;;;5063120;28;20067;-77
2021/07/03 04:13:47;;;;;;;5.03;4.00;;;486.60;2380.80;;;;;;5073862;28;20067;-76
2021/07/03 04:16:12;;;;;;;5.30;3.55;;;486.40;2380.80;;;;;;5070303;28;20032;-78
2021/07/03 04:18:38;;;;;;;5.90;4.28;;;486.40;2380.80;;;;;;5061291;28;20075;-77
2021/07/03 04:21:04;;;;;;;5.82;4.72;;;486.40;2380.80;;;;;;5064139;28;20071;-77
2021/07/03 04:23:30;;;;;;;6.47;3.80;;;486.40;2380.80;;;;;;5071916;28;20020;-77
2021/07/03 04:25:55;;;;;;;6.75;3.63;;;486.40;2380.80;;;;;;5058892;28;20047;-77
2021/07/03 04:28:21;;;;;;;5.93;4.03;;;486.50;2380.80;;;;;;5074788;28;20135;-77
2021/07/03 04:30:47;;;;;;;5.25;3.60;;;486.70;2380.80;;;;;;5073784;28;20070;-78
2021/07/03 04:33:13;;;;;;;6.15;3.83;;;486.50;2380.80;;;;;;5055475;28;20021;-77
2021/07/03 04:35:38;;;;;;;6.32;3.85;;;486.60;2380.80;;;;;;5082684;28;20024;-77
2021/07/03 04:38:04;;;;;;;5.45;3.65;;;486.70;2380.80;;;;;;5079553;28;20017;-77
2021/07/03 04:40:30;;;;;;;6.97;3.80;;;486.70;2380.80;;;;;;5094026;28;20486;-77
2021/07/03 04:42:56;;;;;;;6.03;4.25;;;486.70;2380.80;;;;;;5075599;28;20024;-77
2021/07/03 04:45:22;;;;;;;7.72;4.35;;;486.90;2380.80;;;;;;5080270;28;20047;-77
2021/07/03 04:47:47;;;;;;;6.28;4.35;;;487.20;2380.80;;;;;;5065653;28;20031;-78
2021/07/03 04:50:14;;;;;;;5.90;3.38;;;512.00;2380.80;;;;;;5065247;28;20036;-77
2021/07/03 04:52:39;;;;;;;4.85;3.25;;;512.20;2380.80;;;;;;5082188;28;20482;-77
2021/07/03 04:55:06;;;;;;;4.85;3.55;;;512.40;2380.80;;;;;;5060441;28;20036;-77
2021/07/03 04:57:32;;;;;;;4.40;3.22;;;512.70;2380.80;;;;;;5073151;28;20025;-77
2021/07/03 04:59:58;;;;;;;5.32;3.72;;;512.90;2380.80;;;;;;5068100;28;20111;-77
2021/07/03 05:02:24;;;;;;;5.05;3.65;;;512.80;2380.80;;;;;;5073736;28;20033;-77
2021/07/03 05:04:50;;;;;;;6.55;4.68;;;512.90;2380.80;;;;;;5072829;28;20421;-77
2021/07/03 05:07:16;;;;;;;5.55;3.83;;;512.50;2380.80;;;;;;5082131;28;20046;-79
2021/07/03 05:09:42;;;;;;;5.93;3.47;;;512.50;2380.80;;;;;;5064004;28;20725;-80
2021/07/03 05:12:07;;;;;;;6.47;3.75;;;512.40;2380.80;;;;;;5077450;28;20124;-80
2021/07/03 05:14:34;;;;;;;4.60;3.30;;;512.40;2380.80;;;;;;5064386;28;20111;-81
2021/07/03 05:17:01;;;;;;;8.02;3.72;;;512.50;2380.80;;;;;;5068997;28;20021;-80
2021/07/03 05:19:26;;;;;;;4.82;3.15;;;512.80;2380.80;;;;;;5079155;28;20025;-79
2021/07/03 05:21:52;;;;;;;6.90;3.70;;;512.80;2380.80;;;;;;5062081;28;20491;-79
2021/07/03 05:24:18;;;;;;;8.65;3.20;;;512.90;2380.80;;;;;;5083227;28;20463;-83
2021/07/03 05:26:43;;;;;;;6.13;4.30;;;512.70;2380.80;;;;;;5078539;28;20028;-83
2021/07/03 05:29:09;;;;;;;4.93;3.30;;;512.80;2380.80;;;;;;5072785;28;20059;-80
2021/07/03 05:31:35;;;;;;;5.03;3.25;;;537.80;2406.40;;;;;;5081738;28;20081;-80
2021/07/03 05:34:01;;;;;;;5.95;3.65;;;537.80;2406.40;;;;;;5087786;28;20044;-79
2021/07/03 05:36:27;;;;;;;4.22;3.28;;;537.80;2406.40;;;;;;5078989;28;20021;-79
2021/07/03 05:38:53;;;;;;;4.22;3.38;;;537.80;2406.40;;;;;;5067645;28;20017;-79
2021/07/03 05:41:19;;;;;;;4.45;3.10;;;537.90;2406.40;;;;;;5087535;28;20016;-79
2021/07/03 05:43:45;;;;;;;6.75;4.00;;;538.10;2406.40;;;;;;5079918;28;20020;-80
2021/07/03 05:46:12;;;;;;;5.50;3.25;;;537.90;2406.40;;;;;;5078614;28;20020;-79
2021/07/03 05:48:43;;;;;;;5.43;3.30;;;538.10;2406.40;;;;;;5082180;28;20043;-80
2021/07/03 05:51:09;;;;;;;5.40;3.60;;;538.40;2406.40;;;;;;5081170;28;20051;-79
2021/07/03 05:53:36;;;;;;;4.32;3.13;;;563.30;2432.00;;;;;;5087450;28;20020;-80
2021/07/03 05:56:02;;;;;;;5.00;3.78;;;563.40;2432.00;;;;;;5062611;28;20044;-80
2021/07/03 05:58:28;;;;;;;4.88;3.10;;;563.40;2432.00;;;;;;5080038;28;20067;-81
2021/07/03 06:00:53;;;;;;;5.68;3.92;;;563.70;2406.40;;;;;;5073858;28;20045;-81
2021/07/03 06:03:19;;;;;;;4.07;2.97;;;563.80;2380.80;;;;;;5072477;28;20035;-81
2021/07/03 06:05:45;;;;;;;6.10;3.75;;;564.00;2380.80;;;;;;5068539;28;20024;-81
2021/07/03 06:08:11;;;;;;;5.05;3.40;;;564.00;2355.20;;;;;;5071875;28;20055;-79
2021/07/03 06:10:37;;;;;;;5.43;3.60;;;563.80;2380.80;;;;;;5081184;28;20165;-79
2021/07/03 06:13:03;;;;;;;5.85;3.63;;;564.00;2380.80;;;;;;5077370;28;20763;-79
2021/07/03 06:15:29;;;;;;;5.22;3.88;;;589.10;2329.60;;;;;;5070648;28;21059;-80
2021/07/03 06:17:54;;;;;;;6.82;3.72;;;589.20;2329.60;;;;;;5073894;28;20024;-80
2021/07/03 06:20:22;;;;;;;7.00;4.07;;;589.30;2304.00;;;;;;5086145;28;20059;-80
2021/07/03 06:22:48;;;;;;;6.53;3.85;;;589.30;2304.00;;;;;;5072106;28;20074;-80
2021/07/03 06:25:13;;;;;;;4.93;3.75;;;589.40;2304.00;;;;;;5055122;28;20938;-80
2021/07/03 06:27:40;;;;;;;4.90;3.67;;;589.60;2278.40;;;;;;5073096;28;20119;-80
2021/07/03 06:30:08;;;;;;;5.47;3.63;;;589.70;2278.40;;;;;;5060254;28;20032;-80
2021/07/03 06:32:34;;;;;;;5.03;4.07;;;614.40;2252.80;;;;;;5074150;28;20526;-80
2021/07/03 06:35:00;;;;;;;7.35;4.30;;;614.60;2252.80;;;;;;5074126;28;20024;-80
2021/07/03 06:37:25;;;;;;;8.18;3.80;;;614.70;2252.80;;;;;;5076992;28;20024;-80
2021/07/03 06:39:51;;;;;;;4.63;3.15;;;614.90;2201.60;;;;;;5064502;28;20032;-80
2021/07/03 06:42:17;;;;;;;7.53;4.38;;;614.80;2227.20;;;;;;5066304;28;20029;-80
2021/07/03 06:44:45;;;;;;;5.97;3.72;;;614.60;2227.20;;;;;;5071838;28;20025;-80
2021/07/03 06:47:14;;;;;;;6.10;4.25;;;614.70;2227.20;;;;;;5085930;28;20028;-80
2021/07/03 06:49:41;;;;;;;6.72;4.10;;;614.90;2201.60;;;;;;5066116;28;20035;-80
2021/07/03 06:52:09;;;;;;;4.93;3.65;;;615.10;2201.60;;;;;;5055178;28;20063;-80
2021/07/03 06:54:35;;;;;;;4.63;3.67;;;640.10;2150.40;;;;;;5064822;28;20042;-80
2021/07/03 06:57:01;;;;;;;6.07;3.22;;;640.50;2124.80;;;;;;5071437;28;20033;-80
2021/07/03 06:59:27;;;;;;;5.60;4.22;;;640.70;2099.20;;;;;;5085313;28;20113;-80
2021/07/03 07:01:54;;;;;;;5.03;3.38;;;665.60;2099.20;;;;;;5073524;28;20103;-80
2021/07/03 07:04:20;;;;;;;4.75;3.88;;;665.70;2099.20;;;;;;5068633;28;20086;-81
2021/07/03 07:06:50;;;;;;;5.40;3.92;;;665.60;2099.20;;;;;;5059050;28;20025;-81
2021/07/03 07:09:17;;;;;;;7.38;3.40;;;666.20;2048.00;;;;;;5087975;28;20020;-80
2021/07/03 07:11:43;;;;;;;18.15;4.28;;;666.20;2048.00;;;;;;5070429;28;20056;-80
2021/07/03 07:14:08;;;;;;;6.97;4.47;;;666.30;2022.40;;;;;;5081227;28;20016;-80
2021/07/03 07:16:34;;;;;;;7.00;4.15;;;666.30;2048.00;;;;;;5086040;28;20031;-80
2021/07/03 07:19:00;;;;;;;5.85;3.70;;;666.50;2022.40;;;;;;5089207;28;20024;-81
2021/07/03 07:21:26;;;;;;;4.80;3.92;;;691.40;1996.80;;;;;;5064757;28;20047;-83
2021/07/03 07:23:52;;;;;;;6.55;3.45;;;691.20;1996.80;;;;;;5081072;28;20031;-80
2021/07/03 07:26:18;;;;;;;5.43;3.58;;;691.20;2022.40;;;;;;5081292;28;20033;-80
2021/07/03 07:28:44;;;;;;;5.65;3.97;;;666.50;2022.40;;;;;;5068142;28;20242;-80
2021/07/03 07:31:10;;;;;;;5.07;4.13;;;665.80;2073.60;;;;;;5091087;28;20028;-80
2021/07/03 07:33:36;;;;;;;6.90;4.30;;;665.70;2073.60;;;;;;5080980;28;20023;-80
2021/07/03 07:36:02;;;;;;;4.45;3.35;;;666.30;2048.00;;;;;;5070542;28;20403;-80
2021/07/03 07:38:28;;;;;;;6.07;3.95;;;691.40;2022.40;;;;;;5076627;28;20077;-80
2021/07/03 07:40:53;;;;;;;5.00;3.28;;;691.60;1971.20;;;;;;5076878;28;20115;-80
2021/07/03 07:43:19;;;;;;;6.07;4.28;;;691.50;1971.20;;;;;;5092006;28;20062;-80
2021/07/03 07:45:45;;;;;;;5.47;3.45;;;691.60;1971.20;;;;;;5074541;28;20052;-80
2021/07/03 07:48:11;;;;;;;5.93;3.40;;;691.60;1971.20;;;;;;5074752;28;20032;-80
2021/07/03 07:50:37;;;;;;;5.65;3.60;;;691.40;1996.80;;;;;;5074469;28;20444;-80
2021/07/03 07:53:03;;;;;;;4.50;3.50;;;691.60;1971.20;;;;;;5074842;28;20025;-80
2021/07/03 07:55:29;;;;;;;5.00;3.65;;;691.60;1971.20;;;;;;5074429;28;20043;-80
2021/07/03 07:57:55;;;;;;;4.63;3.50;;;691.90;1945.60;;;;;;5084219;28;20060;-80
2021/07/03 08:00:22;;;;;;;6.85;3.38;;;717.00;1920.00;;;;;;5070905;28;20028;-81
2021/07/03 08:02:49;;;;;;;7.80;4.13;;;717.20;1920.00;;;;;;5064201;28;20085;-79
2021/07/03 08:05:15;;;;;;;4.55;3.35;;;717.40;1894.40;;;;;;5066339;28;20384;-80
2021/07/03 08:07:41;;;;;;;6.22;3.30;;;717.70;1868.80;;;;;;5059846;28;20028;-80
2021/07/03 08:10:08;;;;;;;6.32;3.47;;;717.30;1894.40;;;;;;5069805;28;20051;-81
2021/07/03 08:12:34;;;;;;;6.80;3.75;;;717.70;1868.80;;;;;;5064677;28;20035;-81
2021/07/03 08:14:59;;;;;;;6.75;3.83;;;717.60;1843.20;;;;;;5065063;28;20032;-80
2021/07/03 08:17:25;;;;;;;4.70;3.22;;;717.70;1843.20;;;;;;5077242;28;20122;-80
2021/07/03 08:19:51;;;;;;;6.32;3.80;;;742.70;1843.20;;;;;;5064929;28;20031;-81
2021/07/03 08:22:17;;;;;;;5.53;3.50;;;742.50;1843.20;;;;;;5060279;28;20039;-81
2021/07/03 08:24:42;;;;;;;4.40;3.20;;;742.80;1843.20;;;;;;5064622;28;20032;-81
2021/07/03 08:27:08;;;;;;;5.18;3.88;;;743.20;1792.00;;;;;;5076648;28;20036;-81
2021/07/03 08:29:34;;;;;;;4.97;3.28;;;743.20;1792.00;;;;;;5071309;28;20055;-81
2021/07/03 08:32:00;;;;;;;4.35;3.40;;;768.20;1740.80;;;;;;5063619;28;20455;-81
2021/07/03 08:34:25;;;;;;;4.28;3.55;;;768.30;1766.40;;;;;;5071744;28;20023;-81
2021/07/03 08:36:51;;;;;;;7.07;3.80;;;768.30;1740.80;;;;;;5066142;28;20074;-80
2021/07/03 08:39:17;;;;;;;5.95;3.60;;;742.70;1817.60;;;;;;5068477;28;20027;-81
2021/07/03 08:41:43;;;;;;;6.45;4.00;;;742.70;1817.60;;;;;;5084767;28;20028;-81
2021/07/03 08:44:12;;;;;;;5.90;3.22;;;743.20;1792.00;;;;;;5069785;28;20425;-76
2021/07/03 08:46:38;;;;;;;4.32;2.97;;;768.50;1740.80;;;;;;5078189;28;20107;-79
2021/07/03 08:49:04;;;;;;;4.57;3.00;;;768.10;1740.80;;;;;;5071182;28;20111;-80
2021/07/03 08:51:30;;;;;;;5.20;3.90;;;743.10;1792.00;;;;;;5074887;28;20020;-79
2021/07/03 08:53:56;;;;;;;4.45;3.13;;;768.20;1740.80;;;;;;5080369;28;20021;-80
2021/07/03 08:56:22;;;;;;;6.47;3.53;;;768.50;1715.20;;;;;;5081183;28;20375;-81
2021/07/03 08:58:48;;;;;;;7.25;3.72;;;768.20;1740.80;;;;;;5067292;28;20029;-81
2021/07/03 09:01:14;;;;;;;8.10;4.40;;;743.30;1740.80;;;;;;5067085;28;20033;-80
2021/07/03 09:03:53;;;;;;;7.13;4.25;;;768.50;1715.20;;;;;;5087646;28;20070;-84
2021/07/03 09:06:30;;;;;;;4.40;3.03;;;768.20;1740.80;;;;;;5064369;28;20032;-82
2021/07/03 09:08:56;;;;;;;7.88;3.90;;;743.30;1740.80;;;;;;5070268;28;20094;-83
2021/07/03 09:11:22;;;;;;;4.85;3.55;;;743.10;1766.40;;;;;;5063320;28;20399;-83
2021/07/03 09:13:58;;;;;;;4.60;3.03;;;743.10;1766.40;;;;;;5068455;28;20032;-83
2021/07/03 09:16:32;;;;;;;6.28;3.42;;;742.40;1817.60;;;;;;5066568;28;20035;-79
2021/07/03 09:18:58;;;;;;;6.07;3.80;;;717.50;1817.60;;;;;;5068767;28;20028;-79
2021/07/03 09:21:24;;;;;;;7.32;3.80;;;717.50;1817.60;;;;;;5073431;28;20031;-80
2021/07/03 09:23:50;;;;;;;4.70;3.00;;;743.20;1766.40;;;;;;5087015;28;20480;-81
2021/07/03 09:26:16;;;;;;;6.78;3.55;;;768.30;1740.80;;;;;;5057773;28;20116;-79
2021/07/03 09:28:44;;;;;;;5.25;3.72;;;768.70;1715.20;;;;;;5072131;28;20068;-86
2021/07/03 09:31:13;;;;;;;4.43;3.00;;;768.30;1715.20;;;;;;5084148;28;20046;-80
2021/07/03 09:33:47;;;;;;;6.15;3.30;;;768.50;1689.60;;;;;;5062354;28;20028;-81
2021/07/03 09:36:21;;;;;;;5.15;2.78;;;793.70;1689.60;;;;;;5061699;28;20544;-81
2021/07/03 09:38:48;;;;;;;5.82;3.20;;;794.20;1664.00;;;;;;5064733;28;20532;-81
2021/07/03 09:41:15;;;;;;;5.95;3.22;;;844.80;1587.20;;;;;;5076996;28;20021;-81
2021/07/03 09:43:50;;;;;;;4.68;3.15;;;820.10;1536.00;;;;;;5059434;28;20024;-81
2021/07/03 09:46:39;;;;;;;5.75;3.53;;;819.40;1561.60;;;;;;5070598;28;20031;-81
2021/07/03 09:49:07;;;;;;;5.25;4.07;;;793.90;1612.80;;;;;;5068597;28;20020;-81
2021/07/03 09:51:53;;;;;;;4.38;3.28;;;768.30;1664.00;;;;;;5067433;28;20036;-81
2021/07/03 09:54:25;;;;;;;5.13;3.35;;;743.20;1715.20;;;;;;5074280;28;20048;-81
2021/07/03 09:56:58;;;;;;;5.32;3.35;;;742.70;1740.80;;;;;;5069093;28;20032;-80
2021/07/03 09:59:34;;;;;;;4.75;3.90;;;742.80;1740.80;;;;;;5066068;28;20077;-80
2021/07/03 10:02:01;;;;;;;6.45;3.55;;;768.00;1715.20;;;;;;5064206;28;20016;-80
2021/07/03 10:04:27;;;;;;;5.95;3.95;;;768.60;1689.60;;;;;;5083691;28;20390;-81
2021/07/03 10:06:56;;;;;;;3.95;3.10;;;794.00;1638.40;;;;;;5082767;28;20475;-80
2021/07/03 10:09:31;;;;;;;4.47;3.08;;;793.80;1638.40;;;;;;5080243;28;20021;-81
2021/07/03 10:12:03;;;;;;;5.50;3.72;;;794.00;1638.40;;;;;;5073202;28;20021;-81
2021/07/03 10:14:45;;;;;;;5.15;3.75;;;793.70;1638.40;;;;;;5078888;28;20073;-81
2021/07/03 10:17:11;;;;;;;4.35;2.92;;;768.50;1638.40;;;;;;5058446;28;20028;-81
2021/07/03 10:19:39;;;;;;;4.43;3.35;;;768.10;1664.00;;;;;;5058254;28;20023;-81
2021/07/03 10:22:12;;;;;;;6.72;3.30;;;793.80;1612.80;;;;;;5064034;28;20086;-80
2021/07/03 10:24:50;;;;;;;5.13;3.33;;;819.40;1561.60;;;;;;5058541;28;20458;-80
2021/07/03 10:27:30;;;;;;;7.00;4.63;;;819.80;1510.40;;;;;;5063062;28;20036;-81
2021/07/03 10:30:02;;;;;;;4.47;3.63;;;845.30;1484.80;;;;;;5082909;28;20044;-79
2021/07/03 10:32:39;;;;;;;4.70;3.72;;;845.30;1484.80;;;;;;5062612;28;20412;-79
2021/07/03 10:35:13;;;;;;;7.65;3.97;;;844.80;1510.40;;;;;;5085100;28;20052;-78
2021/07/03 10:37:40;;;;;;;6.43;3.75;;;794.50;1536.00;;;;;;5077934;28;20032;-78
2021/07/03 10:40:22;;;;;;;5.03;3.67;;;819.30;1536.00;;;;;;5086074;28;20020;-79
2021/07/03 10:42:50;;;;;;;11.30;5.20;;;794.10;1536.00;;;;;;5088443;28;20035;-77
2021/07/03 10:45:20;;;;;;;6.82;3.90;;;793.90;1561.60;;;;;;5072988;28;20055;-81
2021/07/03 10:47:46;;;;;;;5.30;3.90;;;819.40;1510.40;;;;;;5081283;28;20028;-79
2021/07/03 10:50:18;;;;;;;6.03;3.22;;;819.90;1459.20;;;;;;5066960;28;20039;-79
2021/07/03 10:52:45;;;;;;;6.25;3.47;;;845.20;1484.80;;;;;;5078658;28;20099;-79
2021/07/03 10:55:11;;;;;;;7.55;4.38;;;819.40;1484.80;;;;;;5083152;28;20095;-80
2021/07/03 10:57:44;;;;;;;6.00;3.38;;;794.10;1536.00;;;;;;5089878;28;20077;-80
2021/07/03 11:00:11;;;;;;;4.43;3.40;;;793.60;1561.60;;;;;;5087937;28;20428;-80
2021/07/03 11:02:38;;;;;;;5.55;4.13;;;819.30;1510.40;;;;;;5073010;28;20077;-80
2021/07/03 11:05:13;;;;;;;4.80;3.08;;;845.10;1484.80;;;;;;5072656;28;20028;-79
2021/07/03 11:07:40;;;;;;;4.07;2.92;;;845.50;1433.60;;;;;;5093248;28;20042;-81
2021/07/03 11:10:24;;;;;;;7.15;3.65;;;819.90;1433.60;;;;;;5087428;28;20037;-81
2021/07/03 11:12:51;;;;;;;5.75;3.72;;;793.90;1536.00;;;;;;5069420;28;20028;-80
2021/07/03 11:15:27;;;;;;;4.63;3.40;;;793.80;1561.60;;;;;;5081818;28;20021;-80
2021/07/03 11:17:59;;;;;;;;;;;819.70;1484.80;;;;;;5075159;28;20372;-80
2021/07/03 11:20:26;;;;;;;3.97;2.90;;;844.90;1484.80;;;;;;5089275;28;20270;-79
2021/07/03 11:22:52;;;;;;;5.43;3.35;;;845.40;1459.20;;;;;;5076577;28;20054;-80
2021/07/03 11:25:31;;;;;;;6.30;3.05;;;870.60;1408.00;;;;;;5092908;28;20028;-80
2021/07/03 11:28:13;;;;;;;4.60;3.10;;;871.30;1356.80;;;;;;5067461;28;20044;-79
2021/07/03 11:30:42;;;;;;;5.28;4.03;;;871.10;1356.80;;;;;;5087088;28;20028;-80
2021/07/03 11:33:10;;;;;;;5.25;3.20;;;870.40;1382.40;;;;;;5085571;28;20055;-81
2021/07/03 11:35:42;;;;;;;4.28;3.10;;;870.90;1356.80;;;;;;5064831;28;20016;-79
2021/07/03 11:38:08;;;;;;;4.68;3.42;;;871.10;1331.20;;;;;;5056282;28;20810;-80
2021/07/03 11:40:34;;;;;;;11.15;4.10;;;845.50;1382.40;;;;;;5082031;28;20074;-80
2021/07/03 11:43:03;;;;;;;5.05;3.58;;;845.60;1382.40;;;;;;5079439;28;20052;-80
2021/07/03 11:45:32;;;;;;;7.47;3.15;;;845.40;1382.40;;;;;;5077514;28;20024;-80
2021/07/03 11:48:09;;;;;;;5.13;3.30;;;820.00;1408.00;;;;;;5075801;28;20031;-79
2021/07/03 11:50:44;;;;;;;8.25;3.80;;;819.70;1433.60;;;;;;5080112;28;20119;-80
2021/07/03 11:53:12;;;;;;;4.82;3.50;;;819.40;1433.60;;;;;;5084476;28;20040;-80
2021/07/03 11:55:41;;;;;;;15.18;4.85;;;794.10;1459.20;;;;;;5081821;28;20020;-80
2021/07/03 11:58:27;;;;;;;6.85;4.03;;;793.70;1484.80;;;;;;5083813;28;20390;-80
2021/07/03 12:00:55;;;;;;;5.38;3.22;;;794.20;1459.20;;;;;;5081968;28;20020;-79
2021/07/03 12:03:30;;;;;;;3.97;3.45;;;794.20;1459.20;;;;;;5084766;28;20052;-80
2021/07/03 12:05:57;;;;;;;11.13;4.10;;;793.80;1459.20;;;;;;5072948;28;20028;-80
2021/07/03 12:08:30;;;;;;;4.13;3.50;;;768.70;1484.80;;;;;;5087617;28;20064;-79
2021/07/03 12:11:02;;;;;;;6.15;3.85;;;794.00;1510.40;;;;;;5083299;28;20115;-78
2021/07/03 12:13:34;;;;;;;10.13;3.70;;;820.00;1408.00;;;;;;5065880;28;20040;-79
2021/07/03 12:15:59;;;;;;;4.90;3.38;;;845.50;1382.40;;;;;;5084071;28;20638;-81
2021/07/03 12:18:34;;;;;;;5.05;3.50;;;845.10;1382.40;;;;;;5068337;28;20058;-81
2021/07/03 12:21:08;;;;;;;4.88;2.60;;;819.80;1408.00;;;;;;5087228;28;20439;-82